Orofino, ID

8:21 PM PDT on September 02, 2015 (GMT -0700)
APRSWXNET | | Change Station
CLOSE
Current Station
Personal Weather Station
Location: Weippe, ID
Elevation: 3069 ft
Nearby Weather Stations

Elev 3069 ft 46.38 °N, 115.95 °W | Updated 37 minutes ago

Overcast
Overcast
55 °F
Feels Like 55 °F
N
0
Wind Variable Wind from WNW
Gusts 0.0 mph

Today
High -- | Low -- °F
--% Chance of Precip.
Yesterday
High -- | Low -- °F
Precip. -- in
6:05 AM 7:21 PM
Waning Gibbous, 74% visible
Pressure 29.93 in
Visibility 10.0 miles
Clouds Scattered Clouds 7000 ft
Scattered Clouds 12000 ft
Dew Point 46 °F
Humidity 72%
Rainfall in
Snow Depth Not available.
UV 0 out of 12
Pollen 7.70 out of 12
Air Quality Not available.
Flu Activity Not available.
METAR KGIC 030315Z AUTO 06004KT 10SM SCT070 SCT120 12/07 A2993 RMK AO1 T01230070
Pressure 29.93 in
Visibility 10.0 miles
Clouds Scattered Clouds 7000 ft
Scattered Clouds 12000 ft
Dew Point 46 °F
Humidity 72%
Rainfall in
Snow Depth Not available.
UV 0 out of 12
Pollen 7.70 out of 12
Air Quality Not available.
Flu Activity Not available.
METAR KGIC 030315Z AUTO 06004KT 10SM SCT070 SCT120 12/07 A2993 RMK AO1 T01230070

10-Day Weather Forecast

×

Almanac

Astronomy

Sep. 02, 2015 Rise Set
Actual Time
Civil Twilight
Nautical Twilight
Astronomical Twilight
Moon
Length of Visible Light
Length of Day
Tomorrow will be .
, % of the Moon is Illuminated

Today's Extremes

State Highs State Lows

Community

WunderPhotos

Upload Photos

1,851,894 photos uploaded!

WunderBlogs® & News

Nearby

Air Quality

  Air Quality AQ Index Pollutant
Not available.

Snow Depth

Station Depth Elevation

Earthquake Activity

City Distance Mag. Time & Date
Minimum magnitude displayed is 2.5.

Coastal Water Temperatures

Place Temperature

Stations

Nearby Weather Stations

Station Location Temp. Windchill Dew Point Humidity Wind Precip. Elev Updated Type